createdAt,value
2023-03-17T00:01:53.948Z,35.00
2023-03-17T00:04:22.211Z,32.40
2023-03-17T00:06:48.810Z,32.30
2023-03-17T00:09:16.467Z,30.10
2023-03-17T00:11:43.683Z,35.00
2023-03-17T00:14:10.780Z,35.40
2023-03-17T00:16:39.208Z,38.10
2023-03-17T00:19:05.790Z,33.90
2023-03-17T00:21:33.739Z,29.10
2023-03-17T00:24:01.069Z,34.20
2023-03-17T00:26:28.342Z,36.20
2023-03-17T00:28:55.156Z,40.40
2023-03-17T00:31:24.694Z,38.40
2023-03-17T00:33:52.314Z,38.10
2023-03-17T00:36:21.049Z,32.60
2023-03-17T00:38:48.102Z,33.00
2023-03-17T00:41:15.820Z,33.00
2023-03-17T00:43:42.419Z,31.50
2023-03-17T00:46:11.665Z,32.80
2023-03-17T00:48:38.143Z,31.30
2023-03-17T00:51:04.690Z,33.90
2023-03-17T00:53:31.123Z,44.20
2023-03-17T00:55:57.567Z,37.30
2023-03-17T00:58:31.954Z,32.60
2023-03-17T01:00:59.327Z,35.00
2023-03-17T01:03:27.439Z,37.50
2023-03-17T01:05:57.459Z,37.60
2023-03-17T01:08:25.113Z,37.50
2023-03-17T01:10:51.943Z,37.40
2023-03-17T01:13:18.389Z,39.40
2023-03-17T01:15:45.952Z,36.70
2023-03-17T01:18:13.514Z,32.60
2023-03-17T01:20:40.243Z,33.60
2023-03-17T01:23:06.875Z,36.20
2023-03-17T01:25:33.745Z,31.50
2023-03-17T01:28:00.294Z,36.60
2023-03-17T01:30:29.219Z,36.30
2023-03-17T01:32:56.865Z,38.70
2023-03-17T01:35:26.415Z,37.80
2023-03-17T01:37:52.792Z,41.40
2023-03-17T01:40:21.664Z,32.50
2023-03-17T01:42:51.950Z,34.30
2023-03-17T01:45:38.063Z,34.30
2023-03-17T01:48:05.227Z,33.20
2023-03-17T01:50:31.900Z,34.90
2023-03-17T01:52:58.601Z,34.10
2023-03-17T01:55:25.032Z,34.40
2023-03-17T01:57:55.872Z,34.70
2023-03-17T02:00:24.245Z,33.00
2023-03-17T02:02:52.127Z,34.20
2023-03-17T02:05:23.462Z,35.50
2023-03-17T02:07:50.626Z,31.40
2023-03-17T02:10:18.813Z,31.30
2023-03-17T02:12:47.786Z,32.00
2023-03-17T02:15:14.939Z,36.70
2023-03-17T02:17:41.849Z,31.30
2023-03-17T02:20:14.132Z,33.80
2023-03-17T02:22:41.682Z,32.60
2023-03-17T02:25:08.356Z,28.30
2023-03-17T02:27:38.007Z,32.30
2023-03-17T02:36:12.072Z,30.60
2023-03-17T02:38:39.921Z,30.20
2023-03-17T02:41:09.953Z,27.70
2023-03-17T02:43:38.319Z,28.10
2023-03-17T02:46:06.214Z,30.70
2023-03-17T02:48:35.064Z,27.70
2023-03-17T02:51:03.256Z,30.40
2023-03-17T02:53:31.495Z,32.00
2023-03-17T02:55:59.410Z,31.20
2023-03-17T02:58:27.371Z,35.00
2023-03-17T03:00:55.196Z,32.00
2023-03-17T03:03:22.989Z,32.20
2023-03-17T03:05:51.202Z,29.40
2023-03-17T03:08:19.149Z,29.10
2023-03-17T03:10:47.139Z,28.20
2023-03-17T03:13:15.197Z,29.80
2023-03-17T03:15:43.846Z,26.70
2023-03-17T03:18:12.512Z,25.60
2023-03-17T03:20:42.556Z,23.50
2023-03-17T03:23:10.702Z,28.30
2023-03-17T03:25:38.830Z,26.70
2023-03-17T03:28:08.328Z,29.60
2023-03-17T03:30:36.897Z,25.90
2023-03-17T03:33:04.875Z,27.90
2023-03-17T03:35:32.931Z,30.10
2023-03-17T03:38:02.274Z,25.00
2023-03-17T03:40:30.412Z,30.20
2023-03-17T03:42:58.760Z,25.50
2023-03-17T03:45:27.168Z,30.80
2023-03-17T03:47:55.444Z,25.50
2023-03-17T03:50:23.251Z,24.20
2023-03-17T03:52:51.642Z,25.00
2023-03-17T03:55:19.610Z,21.50
2023-03-17T03:57:47.449Z,28.40
2023-03-17T04:00:15.708Z,26.60
2023-03-17T04:02:47.634Z,31.10
2023-03-17T04:05:17.414Z,27.00
2023-03-17T04:07:45.942Z,22.80
2023-03-17T04:10:14.608Z,24.00
2023-03-17T04:12:42.533Z,19.90
2023-03-17T04:15:11.601Z,23.50
2023-03-17T04:17:39.611Z,25.80
2023-03-17T04:20:07.635Z,19.80
2023-03-17T04:22:35.589Z,20.80
2023-03-17T04:25:03.469Z,20.50
2023-03-17T04:27:31.299Z,20.00
2023-03-17T04:29:59.096Z,23.50
2023-03-17T04:32:27.645Z,36.20
2023-03-17T04:34:56.249Z,29.20
2023-03-17T04:37:25.037Z,23.30
2023-03-17T04:39:53.516Z,23.00
2023-03-17T04:42:21.354Z,21.20
2023-03-17T04:44:49.255Z,25.50
2023-03-17T04:47:17.088Z,25.30
2023-03-17T04:49:45.003Z,22.80
2023-03-17T04:52:12.866Z,25.90
2023-03-17T04:54:41.135Z,23.60
2023-03-17T04:57:09.638Z,25.00
2023-03-17T04:59:37.480Z,24.00
2023-03-17T05:02:05.410Z,24.80
2023-03-17T05:04:33.769Z,24.40
2023-03-17T05:07:03.003Z,22.00
2023-03-17T05:09:30.890Z,25.50
2023-03-17T05:11:58.689Z,21.70
2023-03-17T05:14:26.471Z,26.60
2023-03-17T05:16:54.392Z,20.30
2023-03-17T05:19:22.269Z,26.40
2023-03-17T05:21:50.097Z,29.20
2023-03-17T05:24:17.972Z,30.70
2023-03-17T05:26:46.521Z,30.50
2023-03-17T05:29:14.933Z,20.70
2023-03-17T05:31:44.061Z,21.80
2023-03-17T05:34:11.901Z,29.70
2023-03-17T05:36:56.657Z,28.70
2023-03-17T05:39:24.627Z,27.40
2023-03-17T05:41:52.438Z,26.80
2023-03-17T05:44:21.386Z,27.20
2023-03-17T05:46:49.544Z,28.70
2023-03-17T05:49:18.822Z,22.10
2023-03-17T05:51:46.764Z,25.10
2023-03-17T05:54:14.645Z,26.70
2023-03-17T05:56:59.298Z,28.80
2023-03-17T05:59:27.312Z,25.10
2023-03-17T06:01:55.143Z,22.70
2023-03-17T06:04:23.054Z,22.20
2023-03-17T06:06:51.088Z,27.70
2023-03-17T06:09:19.594Z,23.70
2023-03-17T06:11:47.511Z,23.10
2023-03-17T06:14:15.809Z,21.90
2023-03-17T06:16:44.003Z,21.60
2023-03-17T06:19:12.403Z,22.50
2023-03-17T06:21:40.361Z,23.30
2023-03-17T06:24:09.757Z,26.50
2023-03-17T06:26:37.680Z,26.60
2023-03-17T06:29:09.434Z,20.70
2023-03-17T06:31:37.390Z,23.70
2023-03-17T06:34:05.730Z,20.60
2023-03-17T06:36:33.952Z,22.70
2023-03-17T06:39:02.325Z,24.60
2023-03-17T06:41:30.309Z,21.40
2023-03-17T06:43:58.597Z,20.00
2023-03-17T06:52:44.054Z,29.00
2023-03-17T06:55:12.973Z,21.10
2023-03-17T06:57:43.633Z,21.60
2023-03-17T07:00:14.334Z,20.60
2023-03-17T07:02:43.259Z,27.10
2023-03-17T07:05:14.045Z,24.80
2023-03-17T07:07:41.977Z,21.00
2023-03-17T07:10:16.003Z,22.90
2023-03-17T07:12:48.865Z,19.20
2023-03-17T07:15:17.407Z,19.10
2023-03-17T07:17:47.075Z,20.80
2023-03-17T07:20:15.078Z,26.10
2023-03-17T07:22:43.001Z,23.40
2023-03-17T07:25:11.107Z,29.50
2023-03-17T07:27:39.168Z,20.50
2023-03-17T07:30:07.570Z,19.00
2023-03-17T07:32:35.572Z,19.20
2023-03-17T07:35:05.821Z,18.00
2023-03-17T07:37:40.501Z,19.30
2023-03-17T07:40:10.419Z,20.50
2023-03-17T07:42:39.211Z,18.60
2023-03-17T07:45:08.030Z,18.10
2023-03-17T07:47:35.977Z,22.40
2023-03-17T07:50:03.928Z,22.80
2023-03-17T07:52:32.285Z,20.30
2023-03-17T07:55:00.194Z,20.70
2023-03-17T07:57:28.831Z,19.80
2023-03-17T07:59:56.753Z,20.30
2023-03-17T08:02:25.194Z,17.30
2023-03-17T08:04:54.439Z,17.20
2023-03-17T08:07:22.537Z,15.50
2023-03-17T08:09:50.466Z,20.90
2023-03-17T08:12:18.465Z,16.00
2023-03-17T08:14:46.717Z,17.30
2023-03-17T08:17:15.302Z,13.90
2023-03-17T08:19:44.236Z,14.90
2023-03-17T08:22:12.637Z,17.70
2023-03-17T08:24:43.729Z,17.80
2023-03-17T08:27:11.895Z,19.10
2023-03-17T08:29:39.968Z,13.90
2023-03-17T08:32:08.852Z,12.60
2023-03-17T08:34:37.481Z,16.80
2023-03-17T08:37:10.048Z,14.30
2023-03-17T08:39:39.506Z,11.50
2023-03-17T08:42:07.477Z,12.90
2023-03-17T08:44:35.323Z,13.60
2023-03-17T08:47:03.754Z,11.70
2023-03-17T08:49:34.747Z,12.90
2023-03-17T08:52:03.621Z,11.20
2023-03-17T08:54:31.625Z,13.40
2023-03-17T08:57:01.966Z,12.80
2023-03-17T08:59:30.959Z,11.30
2023-03-17T09:01:58.782Z,15.50
2023-03-17T09:04:26.809Z,11.80
2023-03-17T09:07:03.700Z,15.50
2023-03-17T09:09:34.894Z,14.30
2023-03-17T09:12:04.593Z,14.10
2023-03-17T09:14:42.863Z,13.10
2023-03-17T09:17:14.286Z,14.60
2023-03-17T09:19:43.884Z,18.40
2023-03-17T09:22:13.558Z,12.60
2023-03-17T09:24:41.537Z,12.10
2023-03-17T09:27:09.550Z,9.20
2023-03-17T09:29:37.573Z,12.50
2023-03-17T09:32:05.682Z,9.50
2023-03-17T09:34:36.519Z,13.10
2023-03-17T09:37:04.453Z,11.50
2023-03-17T09:39:33.651Z,11.20
2023-03-17T09:42:06.447Z,14.50
2023-03-17T09:44:34.506Z,9.60
2023-03-17T09:47:05.547Z,9.50
2023-03-17T09:49:59.860Z,9.90
2023-03-17T09:52:32.471Z,7.70
2023-03-17T09:55:03.534Z,9.80
2023-03-17T09:57:38.655Z,10.20
2023-03-17T10:00:19.518Z,14.40
2023-03-17T10:02:47.525Z,10.60
2023-03-17T10:05:22.058Z,10.50
2023-03-17T10:08:27.090Z,13.90
2023-03-17T10:11:15.305Z,11.70
2023-03-17T10:13:53.473Z,11.60
2023-03-17T10:16:23.411Z,13.60
2023-03-17T10:18:56.823Z,13.80
2023-03-17T10:21:27.411Z,11.00
2023-03-17T10:23:58.012Z,11.90
2023-03-17T10:26:26.487Z,11.20
2023-03-17T10:28:57.196Z,15.70
2023-03-17T10:31:29.720Z,21.80
2023-03-17T10:33:59.153Z,15.10
2023-03-17T10:36:35.648Z,10.70
2023-03-17T10:39:08.717Z,11.50
2023-03-17T10:41:41.122Z,8.10
2023-03-17T10:44:11.086Z,19.50
2023-03-17T10:46:40.398Z,13.30
2023-03-17T10:49:11.026Z,9.40
2023-03-17T10:51:40.831Z,10.90
2023-03-17T10:54:10.520Z,12.20
2023-03-17T10:56:42.303Z,12.20
2023-03-17T10:59:25.698Z,12.90
2023-03-17T11:01:54.508Z,9.90
2023-03-17T11:04:30.777Z,11.10
2023-03-17T11:06:59.761Z,11.60
2023-03-17T11:09:30.506Z,11.10
2023-03-17T11:12:13.953Z,11.70
2023-03-17T11:14:43.566Z,11.80
2023-03-17T11:17:41.579Z,8.90
2023-03-17T11:20:13.323Z,16.10
2023-03-17T11:22:43.124Z,11.60
2023-03-17T11:25:11.559Z,12.70
2023-03-17T11:27:47.326Z,10.60
2023-03-17T11:30:38.534Z,14.50
2023-03-17T11:33:13.388Z,15.80
2023-03-17T11:35:46.238Z,13.40
2023-03-17T11:38:33.651Z,20.50
2023-03-17T11:41:18.594Z,15.80
2023-03-17T11:43:52.391Z,14.60
2023-03-17T11:46:24.434Z,16.00
2023-03-17T11:49:00.736Z,13.00
2023-03-17T11:51:33.432Z,19.40
2023-03-17T11:54:13.642Z,15.40
2023-03-17T11:57:03.096Z,14.30
2023-03-17T11:59:31.585Z,15.70
2023-03-17T12:02:06.819Z,14.10
2023-03-17T12:04:38.099Z,11.00
2023-03-17T12:07:20.682Z,14.60
2023-03-17T12:09:57.229Z,13.30
2023-03-17T12:23:19.672Z,9.20
2023-03-17T12:25:55.170Z,14.30
2023-03-17T12:28:27.462Z,11.60
2023-03-17T12:31:00.030Z,12.40
2023-03-17T12:33:28.602Z,11.90
2023-03-17T12:35:58.451Z,13.50
2023-03-17T12:38:41.041Z,16.60
2023-03-17T12:41:23.979Z,12.30
2023-03-17T12:44:15.856Z,13.10
2023-03-17T12:46:43.721Z,10.30
2023-03-17T12:49:26.017Z,9.70
2023-03-17T12:51:59.280Z,14.00
2023-03-17T12:54:29.177Z,12.40
2023-03-17T12:57:24.394Z,11.30
2023-03-17T12:59:59.020Z,14.00
2023-03-17T13:02:29.929Z,9.50
2023-03-17T13:05:01.085Z,10.10
2023-03-17T13:07:48.283Z,11.70
2023-03-17T13:10:19.350Z,10.80
2023-03-17T13:12:47.145Z,13.90
2023-03-17T13:15:34.127Z,9.40
2023-03-17T13:18:31.430Z,9.90
2023-03-17T13:21:00.449Z,12.10
2023-03-17T13:23:36.086Z,11.30
2023-03-17T13:26:04.559Z,8.90
2023-03-17T13:28:35.588Z,9.00
2023-03-17T13:31:22.207Z,10.10
2023-03-17T13:33:52.240Z,11.50
2023-03-17T13:36:20.714Z,8.10
2023-03-17T13:39:15.138Z,10.10
2023-03-17T13:41:46.598Z,7.90
2023-03-17T13:44:31.048Z,14.30
2023-03-17T13:47:17.506Z,7.60
2023-03-17T13:49:47.380Z,10.30
2023-03-17T13:52:17.632Z,7.10
2023-03-17T13:54:50.696Z,8.40
2023-03-17T13:57:24.352Z,8.40
2023-03-17T13:59:55.584Z,6.70
2023-03-17T14:02:29.253Z,12.20
2023-03-17T14:05:01.984Z,9.00
2023-03-17T14:07:37.201Z,12.00
2023-03-17T14:10:05.626Z,6.70
2023-03-17T14:12:39.784Z,8.00
2023-03-17T14:15:13.992Z,9.20
2023-03-17T14:17:45.072Z,11.40
2023-03-17T14:20:15.775Z,9.30
2023-03-17T14:22:45.921Z,7.20
2023-03-17T14:25:18.273Z,10.70
2023-03-17T14:27:48.157Z,8.70
2023-03-17T14:30:18.187Z,11.00
2023-03-17T14:32:49.021Z,9.30
2023-03-17T14:35:16.996Z,12.40
2023-03-17T14:37:45.510Z,9.70
2023-03-17T14:40:20.828Z,8.80
2023-03-17T14:42:48.910Z,10.70
2023-03-17T14:45:26.874Z,14.50
2023-03-17T14:47:55.619Z,19.80
2023-03-17T14:50:30.069Z,13.60
2023-03-17T14:52:59.704Z,14.00
2023-03-17T14:55:35.871Z,17.70
2023-03-17T14:58:18.012Z,15.60
2023-03-17T15:00:49.920Z,16.00
2023-03-17T15:03:19.968Z,11.10
2023-03-17T15:05:48.921Z,22.70
2023-03-17T15:14:38.817Z,14.30
2023-03-17T15:17:14.310Z,17.70
2023-03-17T15:19:46.292Z,12.20
2023-03-17T15:22:26.043Z,12.50
2023-03-17T15:25:00.496Z,11.90
2023-03-17T15:27:29.664Z,9.90
2023-03-17T15:29:57.824Z,11.70
2023-03-17T15:32:27.008Z,7.90
2023-03-17T15:34:57.169Z,7.80
2023-03-17T15:37:29.309Z,13.20
2023-03-17T15:39:57.989Z,13.20
2023-03-17T15:42:35.885Z,8.80
2023-03-17T15:45:04.888Z,12.70
2023-03-17T15:47:33.997Z,14.90
2023-03-17T15:50:04.404Z,8.40
2023-03-17T15:52:32.439Z,11.20
2023-03-17T15:55:00.249Z,10.80
2023-03-17T15:57:28.406Z,17.20
2023-03-17T15:59:56.704Z,11.80
2023-03-17T16:02:38.686Z,7.00
2023-03-17T16:05:33.363Z,11.80
2023-03-17T16:08:01.636Z,8.90
2023-03-17T16:10:31.020Z,7.70
2023-03-17T16:12:59.046Z,10.20
2023-03-17T16:15:29.010Z,10.90
2023-03-17T16:17:59.331Z,11.30
2023-03-17T16:20:27.385Z,7.80
2023-03-17T16:22:56.193Z,12.80
2023-03-17T16:25:25.496Z,11.50
2023-03-17T16:27:54.795Z,10.40
2023-03-17T16:30:33.439Z,9.90
2023-03-17T16:33:02.733Z,11.00
2023-03-17T16:35:30.780Z,12.10
2023-03-17T16:37:58.938Z,12.90
2023-03-17T16:40:28.276Z,13.50
2023-03-17T16:42:56.401Z,15.00
2023-03-17T16:45:34.717Z,14.40
2023-03-17T16:48:04.057Z,12.70
2023-03-17T16:50:34.580Z,11.20
2023-03-17T16:53:02.419Z,10.60
2023-03-17T16:55:30.788Z,14.10
2023-03-17T16:58:00.926Z,14.10
2023-03-17T17:00:29.961Z,11.80
2023-03-17T17:02:59.259Z,18.30
2023-03-17T17:05:32.687Z,22.00
2023-03-17T17:08:47.710Z,19.80
2023-03-17T17:11:19.726Z,14.70
2023-03-17T17:13:49.078Z,13.30
2023-03-17T17:16:27.225Z,17.60
2023-03-17T17:18:55.389Z,23.20
2023-03-17T17:21:23.470Z,24.30
2023-03-17T17:23:53.232Z,22.70
2023-03-17T17:26:21.897Z,26.10
2023-03-17T17:28:49.934Z,25.10
2023-03-17T17:31:18.210Z,26.20
2023-03-17T17:33:46.207Z,15.40
2023-03-17T17:36:15.770Z,16.30
2023-03-17T17:38:43.744Z,21.80
2023-03-17T17:41:12.500Z,34.70
2023-03-17T17:43:40.404Z,20.20
2023-03-17T17:46:12.588Z,16.40
2023-03-17T17:48:40.623Z,12.10
2023-03-17T17:51:08.586Z,11.30
2023-03-17T17:53:37.021Z,10.90
2023-03-17T17:56:05.253Z,12.50
2023-03-17T17:58:33.470Z,21.30
2023-03-17T18:01:01.995Z,22.80
2023-03-17T18:03:32.410Z,21.40
2023-03-17T18:06:02.237Z,17.90
2023-03-17T18:13:04.739Z,9.40
2023-03-17T18:15:31.563Z,9.90
2023-03-17T18:17:58.046Z,8.50
2023-03-17T18:20:24.621Z,15.80
2023-03-17T18:22:51.067Z,18.30
2023-03-17T18:25:18.725Z,18.60
2023-03-17T18:27:46.570Z,20.80
2023-03-17T18:30:17.301Z,22.90
2023-03-17T18:32:44.758Z,19.60
2023-03-17T18:35:13.674Z,22.10
2023-03-17T18:37:40.600Z,23.70
2023-03-17T18:40:15.180Z,24.00
2023-03-17T18:42:43.702Z,24.80
2023-03-17T18:45:11.072Z,25.80
2023-03-17T18:47:38.384Z,28.40
2023-03-17T18:50:05.760Z,26.60
2023-03-17T18:52:33.772Z,19.80
2023-03-17T18:55:00.298Z,19.20
2023-03-17T18:57:27.095Z,18.80
2023-03-17T18:59:53.817Z,18.90
2023-03-17T19:02:20.579Z,17.60
2023-03-17T19:04:47.511Z,20.90
2023-03-17T19:07:14.282Z,18.10
2023-03-17T19:09:40.739Z,23.30
2023-03-17T19:12:07.573Z,24.70
2023-03-17T19:14:34.352Z,16.40
2023-03-17T19:17:00.808Z,19.50
2023-03-17T19:19:27.391Z,20.90
2023-03-17T19:21:53.913Z,22.20
2023-03-17T19:24:20.474Z,18.60
2023-03-17T19:26:47.235Z,24.30
2023-03-17T19:29:15.126Z,23.50
2023-03-17T19:31:41.903Z,24.80
2023-03-17T19:34:09.250Z,24.80
2023-03-17T19:36:39.283Z,21.50
2023-03-17T19:39:07.064Z,21.00
2023-03-17T19:44:24.739Z,20.90
2023-03-17T19:46:53.246Z,21.90
2023-03-17T19:49:21.299Z,20.30
2023-03-17T19:51:49.507Z,26.30
2023-03-17T19:54:18.861Z,23.50
2023-03-17T19:56:47.597Z,21.40
2023-03-17T19:59:15.743Z,19.90
2023-03-17T20:01:43.803Z,19.00
2023-03-17T20:04:17.738Z,16.30
2023-03-17T20:06:46.905Z,19.10
2023-03-17T20:09:14.885Z,18.20
2023-03-17T20:11:42.790Z,20.00
2023-03-17T20:14:11.116Z,16.20
2023-03-17T20:16:41.014Z,21.20
2023-03-17T20:19:09.360Z,20.20
2023-03-17T20:21:37.866Z,18.40
2023-03-17T20:24:05.957Z,16.80
2023-03-17T20:26:34.537Z,16.30
2023-03-17T20:29:03.017Z,15.80
2023-03-17T20:31:32.170Z,18.00
2023-03-17T20:34:00.148Z,15.60
2023-03-17T20:36:28.077Z,16.90
2023-03-17T20:38:56.173Z,16.80
2023-03-17T20:41:24.167Z,18.10
2023-03-17T20:43:52.130Z,15.10
2023-03-17T20:46:21.338Z,15.10
2023-03-17T20:48:51.701Z,17.20
2023-03-17T20:51:20.168Z,16.10
2023-03-17T20:53:49.153Z,14.00
2023-03-17T20:56:19.975Z,19.10
2023-03-17T20:58:48.634Z,14.80
2023-03-17T21:01:20.882Z,18.70
2023-03-17T21:03:49.609Z,19.40
2023-03-17T21:06:18.373Z,18.70
2023-03-17T21:08:46.809Z,17.20
2023-03-17T21:11:16.573Z,14.40
2023-03-17T21:13:44.522Z,14.00
2023-03-17T21:16:22.756Z,15.50
2023-03-17T21:18:51.143Z,16.90
2023-03-17T21:21:19.452Z,13.80
2023-03-17T21:23:47.618Z,18.60
2023-03-17T21:26:15.530Z,22.80
2023-03-17T21:28:43.468Z,18.60
2023-03-17T21:31:13.535Z,19.00
2023-03-17T21:33:42.182Z,15.20
2023-03-17T21:36:10.188Z,15.60
2023-03-17T21:38:38.071Z,17.20
2023-03-17T21:41:20.974Z,16.00
2023-03-17T21:43:48.928Z,17.10
2023-03-17T21:46:17.294Z,11.60
2023-03-17T21:48:45.660Z,15.60
2023-03-17T21:51:22.093Z,15.30
2023-03-17T21:53:53.945Z,18.40
2023-03-17T21:56:23.504Z,14.50
2023-03-17T21:58:51.482Z,16.30
2023-03-17T22:01:21.906Z,12.90
2023-03-17T22:03:51.201Z,15.50
2023-03-17T22:06:20.470Z,13.70
2023-03-17T22:08:49.016Z,15.00
2023-03-17T22:11:17.994Z,16.40
2023-03-17T22:13:47.471Z,16.00
2023-03-17T22:16:16.377Z,15.70
2023-03-17T22:18:47.652Z,14.00
2023-03-17T22:21:15.814Z,14.20
2023-03-17T22:23:44.609Z,16.50
2023-03-17T22:26:13.669Z,17.50
2023-03-17T22:28:42.170Z,17.50
2023-03-17T22:31:17.844Z,17.40
2023-03-17T22:33:47.011Z,17.20
2023-03-17T22:36:15.044Z,18.00
2023-03-17T22:38:42.993Z,16.30
2023-03-17T22:41:13.581Z,20.00
2023-03-17T22:43:42.443Z,26.90
2023-03-17T22:46:11.875Z,23.10
2023-03-17T22:48:40.599Z,19.10
2023-03-17T22:51:11.634Z,18.10
2023-03-17T22:53:40.508Z,16.70
2023-03-17T22:56:09.260Z,15.30
2023-03-17T22:58:37.236Z,18.70
2023-03-17T23:01:06.664Z,18.50
2023-03-17T23:03:35.393Z,17.90
2023-03-17T23:06:03.942Z,16.60
2023-03-17T23:08:35.139Z,20.20
2023-03-17T23:11:06.176Z,23.10
2023-03-17T23:13:35.408Z,20.50
2023-03-17T23:16:04.865Z,23.00
2023-03-17T23:18:32.846Z,21.50
2023-03-17T23:21:01.961Z,20.50
2023-03-17T23:23:29.736Z,22.20
2023-03-17T23:25:57.811Z,20.90
2023-03-17T23:28:27.185Z,24.90
2023-03-17T23:30:55.365Z,25.30
2023-03-17T23:33:25.632Z,22.20
2023-03-17T23:35:53.528Z,21.60
2023-03-17T23:38:21.659Z,22.40
2023-03-17T23:40:50.344Z,24.40
2023-03-17T23:43:18.347Z,26.70
2023-03-17T23:45:46.579Z,22.30
2023-03-17T23:48:15.352Z,22.80
2023-03-17T23:50:43.179Z,22.80
2023-03-17T23:53:11.730Z,26.80
2023-03-17T23:55:40.263Z,25.20
2023-03-17T23:58:08.157Z,26.80
